Time;durP1;ratioP1;P1;durP2;ratioP2;P2;SDS_P1;SDS_P2;PMS_P1;PMS_P2;Temp;Humidity;BMP_temperature;BMP_pressure;BME280_temperature;BME280_humidity;BME280_pressure;Samples;Min_cycle;Max_cycle;Signal;HPM_P1;HPM_P2
2023/06/24 00:01:53;;;;;;;;;;;;;;;21.10;100.00;98699.25;5082864;28;19985;-73
2023/06/24 00:04:20;;;;;;;;;;;;;;;21.02;100.00;98698.88;5083174;28;19925;-74
2023/06/24 00:06:47;;;;;;;;;;;;;;;21.13;100.00;98698.63;5086443;28;19935;-73
2023/06/24 00:09:13;;;;;;;;;;;;;;;20.94;100.00;98690.69;5085760;28;19971;-74
2023/06/24 00:11:39;;;;;;;;;;;;;;;21.08;100.00;98699.53;5082386;28;19925;-74
2023/06/24 00:14:06;;;;;;;;;;;;;;;20.93;100.00;98710.78;5082138;28;20027;-71
2023/06/24 00:16:33;;;;;;;;;;;;;;;20.81;100.00;98702.41;5084660;28;19952;-73
2023/06/24 00:19:01;;;;;;;;;;;;;;;20.95;100.00;98698.50;5085535;28;19928;-73
2023/06/24 00:21:29;;;;;;;;;;;;;;;20.94;100.00;98693.41;5070816;28;19924;-73
2023/06/24 00:23:56;;;;;;;;;;;;;;;21.02;100.00;98693.44;5063956;28;19935;-74
2023/06/24 00:26:22;;;;;;;;;;;;;;;21.08;100.00;98696.81;5065259;28;19994;-74
2023/06/24 00:28:49;;;;;;;;;;;;;;;21.05;100.00;98689.28;5083862;28;19925;-73
2023/06/24 00:31:15;;;;;;;;;;;;;;;21.11;100.00;98685.34;5084942;28;19972;-73
2023/06/24 00:33:41;;;;;;;;;;;;;;;21.16;100.00;98696.09;5081542;28;19931;-74
2023/06/24 00:36:11;;;;;;;;;;;;;;;21.08;100.00;98687.88;5081622;28;19925;-74
2023/06/24 00:38:37;;;;;;;;;;;;;;;20.88;100.00;98691.94;5084710;28;20217;-73
2023/06/24 00:41:04;;;;;;;;;;;;;;;21.07;100.00;98694.44;5066962;28;19925;-73
2023/06/24 00:43:30;;;;;;;;;;;;;;;21.01;100.00;98691.06;5082412;28;19924;-73
2023/06/24 00:45:57;;;;;;;;;;;;;;;21.07;100.00;98689.81;5063460;28;19931;-73
2023/06/24 00:48:24;;;;;;;;;;;;;;;21.13;100.00;98694.00;5082598;28;19956;-73
2023/06/24 00:50:50;;;;;;;;;;;;;;;21.04;100.00;98676.84;5074474;28;19934;-73
2023/06/24 00:53:18;;;;;;;;;;;;;;;21.01;100.00;98674.75;5084564;28;19928;-73
2023/06/24 00:55:46;;;;;;;;;;;;;;;20.94;100.00;98675.19;5063322;28;19968;-73
2023/06/24 00:58:15;;;;;;;;;;;;;;;20.98;100.00;98675.38;5081333;28;19929;-73
2023/06/24 01:00:42;;;;;;;;;;;;;;;21.00;100.00;98673.16;5081196;28;19931;-73
2023/06/24 01:03:09;;;;;;;;;;;;;;;21.06;100.00;98680.03;5081398;28;19984;-73
2023/06/24 01:05:35;;;;;;;;;;;;;;;21.12;100.00;98683.44;5084112;28;20318;-73
2023/06/24 01:08:02;;;;;;;;;;;;;;;21.13;100.00;98669.56;5084912;28;19924;-74
2023/06/24 01:10:30;;;;;;;;;;;;;;;21.15;100.00;98675.47;5082749;28;19979;-73
2023/06/24 01:12:56;;;;;;;;;;;;;;;21.09;100.00;98671.31;5081086;28;19960;-73
2023/06/24 01:15:22;;;;;;;;;;;;;;;20.97;100.00;98671.06;5082138;28;19932;-73
2023/06/24 01:17:55;;;;;;;;;;;;;;;21.02;100.00;98673.63;5084935;28;19924;-73
2023/06/24 01:20:24;;;;;;;;;;;;;;;20.98;100.00;98673.44;5084361;28;19935;-73
2023/06/24 01:23:07;;;;;;;;;;;;;;;20.97;100.00;98674.56;5066604;28;19996;-74
2023/06/24 01:25:44;;;;;;;;;;;;;;;21.00;100.00;98668.53;5081471;28;19924;-75
2023/06/24 01:28:21;;;;;;;;;;;;;;;20.89;100.00;98667.16;5080260;28;19924;-75
2023/06/24 01:31:08;;;;;;;;;;;;;;;20.84;100.00;98648.31;5072457;28;19924;-75
2023/06/24 01:33:39;;;;;;;;;;;;;;;20.69;100.00;98654.13;5072441;28;19924;-76
2023/06/24 01:36:07;;;;;;;;;;;;;;;20.76;100.00;98654.50;5072157;28;19925;-75
2023/06/24 01:38:43;;;;;;;;;;;;;;;20.81;100.00;98650.84;5072365;28;19925;-75
2023/06/24 01:41:12;;;;;;;;;;;;;;;20.83;100.00;98652.13;5072176;28;19987;-75
2023/06/24 01:43:43;;;;;;;;;;;;;;;20.91;100.00;98653.28;5072224;28;19955;-75
2023/06/24 01:46:10;;;;;;;;;;;;;;;20.80;100.00;98652.75;5072105;28;19931;-75
2023/06/24 01:48:39;;;;;;;;;;;;;;;20.89;100.00;98650.88;5054371;28;20408;-75
2023/06/24 01:51:08;;;;;;;;;;;;;;;20.92;100.00;98644.03;5084620;28;19934;-75
2023/06/24 01:53:38;;;;;;;;;;;;;;;20.96;100.00;98650.44;5081496;28;19956;-75
2023/06/24 01:56:06;;;;;;;;;;;;;;;20.75;100.00;98641.22;5080541;28;19952;-74
2023/06/24 01:58:34;;;;;;;;;;;;;;;20.72;100.00;98645.38;5083422;28;20401;-75
2023/06/24 02:01:02;;;;;;;;;;;;;;;20.64;100.00;98648.81;5066610;28;19924;-75
2023/06/24 02:03:29;;;;;;;;;;;;;;;20.65;100.00;98655.84;5056027;28;19970;-75
2023/06/24 02:05:57;;;;;;;;;;;;;;;20.66;100.00;98651.22;5079918;28;19984;-75
2023/06/24 02:08:24;;;;;;;;;;;;;;;20.77;100.00;98658.81;5081117;28;19932;-75
2023/06/24 02:10:52;;;;;;;;;;;;;;;20.74;100.00;98650.47;5083718;28;19991;-76
2023/06/24 02:13:19;;;;;;;;;;;;;;;20.79;100.00;98645.72;5083606;28;19925;-77
2023/06/24 02:15:47;;;;;;;;;;;;;;;20.84;100.00;98644.78;5080396;28;19982;-76
2023/06/24 02:18:15;;;;;;;;;;;;;;;20.93;100.00;98645.63;5080149;28;19968;-75
2023/06/24 02:20:43;;;;;;;;;;;;;;;20.94;100.00;98641.81;5083851;28;19931;-74
2023/06/24 02:23:11;;;;;;;;;;;;;;;20.81;100.00;98642.69;5075728;28;20001;-74
2023/06/24 02:25:39;;;;;;;;;;;;;;;20.91;100.00;98642.44;5064847;28;19955;-75
2023/06/24 02:28:06;;;;;;;;;;;;;;;20.96;100.00;98648.53;5083117;28;19952;-74
2023/06/24 02:30:35;;;;;;;;;;;;;;;20.99;100.00;98652.53;5088095;28;19967;-75
2023/06/24 02:33:01;;;;;;;;;;;;;;;21.01;100.00;98648.38;5083042;28;19931;-75
2023/06/24 02:35:27;;;;;;;;;;;;;;;21.03;100.00;98639.94;5081042;28;19980;-73
2023/06/24 02:37:54;;;;;;;;;;;;;;;21.04;100.00;98643.44;5079539;28;19924;-73
2023/06/24 02:40:21;;;;;;;;;;;;;;;20.88;100.00;98629.47;5080359;28;19955;-72
2023/06/24 02:42:48;;;;;;;;;;;;;;;20.93;100.00;98641.00;5083106;28;19931;-72
2023/06/24 02:45:15;;;;;;;;;;;;;;;20.92;100.00;98647.53;5082838;28;19975;-72
2023/06/24 02:47:44;;;;;;;;;;;;;;;20.96;100.00;98647.72;5078375;28;19975;-72
2023/06/24 02:50:11;;;;;;;;;;;;;;;20.93;100.00;98657.28;5083822;28;19960;-72
2023/06/24 02:52:38;;;;;;;;;;;;;;;20.88;100.00;98660.16;5090197;28;19925;-72
2023/06/24 02:55:06;;;;;;;;;;;;;;;20.84;100.00;98664.59;5082718;28;19942;-73
2023/06/24 02:57:34;;;;;;;;;;;;;;;20.85;100.00;98662.69;5074534;28;20044;-73
2023/06/24 03:00:01;;;;;;;;;;;;;;;20.71;100.00;98664.66;5065034;28;20377;-74
2023/06/24 03:02:28;;;;;;;;;;;;;;;20.72;100.00;98667.09;5080756;28;19924;-73
2023/06/24 03:04:54;;;;;;;;;;;;;;;20.75;100.00;98665.66;5076448;28;19931;-73
2023/06/24 03:07:21;;;;;;;;;;;;;;;20.75;100.00;98671.88;5080675;28;19931;-73
2023/06/24 03:09:48;;;;;;;;;;;;;;;20.79;100.00;98669.38;5061427;28;20477;-73
2023/06/24 03:12:14;;;;;;;;;;;;;;;20.67;100.00;98680.78;5079215;28;20363;-73
2023/06/24 03:14:42;;;;;;;;;;;;;;;20.65;100.00;98688.44;5070779;28;19993;-73
2023/06/24 03:17:09;;;;;;;;;;;;;;;20.69;100.00;98686.72;5070930;28;19925;-73
2023/06/24 03:19:35;;;;;;;;;;;;;;;20.74;100.00;98696.63;5052934;28;20540;-73
2023/06/24 03:22:02;;;;;;;;;;;;;;;20.80;100.00;98698.09;5084388;28;19924;-73
2023/06/24 03:24:28;;;;;;;;;;;;;;;20.79;100.00;98702.75;5089251;28;19925;-73
2023/06/24 03:26:56;;;;;;;;;;;;;;;20.71;100.00;98718.97;5076837;28;19957;-73
2023/06/24 03:29:23;;;;;;;;;;;;;;;20.80;100.00;98717.09;5079880;28;19925;-73
2023/06/24 03:31:51;;;;;;;;;;;;;;;20.82;100.00;98714.91;5086105;28;19935;-73
2023/06/24 03:34:17;;;;;;;;;;;;;;;20.71;100.00;98724.38;5079225;28;19963;-73
2023/06/24 03:36:43;;;;;;;;;;;;;;;20.75;100.00;98726.19;5086972;28;19925;-73
2023/06/24 03:39:10;;;;;;;;;;;;;;;20.80;100.00;98728.75;5079267;28;19929;-73
2023/06/24 03:41:36;;;;;;;;;;;;;;;20.82;100.00;98728.47;5081843;28;19932;-73
2023/06/24 03:44:03;;;;;;;;;;;;;;;20.84;100.00;98737.91;5082436;28;19931;-73
2023/06/24 03:46:32;;;;;;;;;;;;;;;20.83;100.00;98739.00;5062413;28;20004;-73
2023/06/24 03:49:00;;;;;;;;;;;;;;;20.84;100.00;98737.09;5084746;28;20382;-73
2023/06/24 03:51:26;;;;;;;;;;;;;;;20.80;100.00;98739.63;5085572;28;19989;-73
2023/06/24 03:53:53;;;;;;;;;;;;;;;20.86;100.00;98740.28;5078547;28;19979;-73
2023/06/24 03:56:19;;;;;;;;;;;;;;;20.84;100.00;98747.97;5079126;28;19992;-73
2023/06/24 03:58:45;;;;;;;;;;;;;;;20.84;100.00;98742.53;5081964;28;19924;-73
2023/06/24 04:01:12;;;;;;;;;;;;;;;20.88;100.00;98741.63;5082074;28;20030;-73
2023/06/24 04:03:38;;;;;;;;;;;;;;;20.80;100.00;98738.81;5073777;28;19931;-73
2023/06/24 04:06:06;;;;;;;;;;;;;;;20.81;100.00;98741.25;5083341;28;19960;-73
2023/06/24 04:08:32;;;;;;;;;;;;;;;20.83;100.00;98739.00;5063013;28;19996;-73
2023/06/24 04:10:59;;;;;;;;;;;;;;;20.67;100.00;98745.13;5066244;28;19963;-73
2023/06/24 04:13:26;;;;;;;;;;;;;;;20.51;100.00;98746.59;5060466;28;19928;-73
2023/06/24 04:15:52;;;;;;;;;;;;;;;20.52;100.00;98753.63;5060436;28;19980;-73
2023/06/24 04:18:19;;;;;;;;;;;;;;;20.59;100.00;98743.13;5080035;28;20044;-73
2023/06/24 04:20:46;;;;;;;;;;;;;;;20.62;100.00;98758.81;5065062;28;19972;-73
2023/06/24 04:23:15;;;;;;;;;;;;;;;20.57;100.00;98758.94;5077254;28;19925;-73
2023/06/24 04:25:42;;;;;;;;;;;;;;;20.54;100.00;98757.66;5063800;28;20362;-73
2023/06/24 04:28:08;;;;;;;;;;;;;;;20.63;100.00;98758.50;5081650;28;19947;-73
2023/06/24 04:30:35;;;;;;;;;;;;;;;20.72;100.00;98756.66;5081774;28;19978;-73
2023/06/24 04:33:02;;;;;;;;;;;;;;;20.63;100.00;98757.72;5087883;28;19924;-73
2023/06/24 04:35:30;;;;;;;;;;;;;;;20.67;100.00;98750.56;5083044;28;19924;-73
2023/06/24 04:37:56;;;;;;;;;;;;;;;20.66;100.00;98757.09;5081416;28;20070;-73
2023/06/24 04:40:24;;;;;;;;;;;;;;;20.74;100.00;98756.34;5064230;28;19984;-73
2023/06/24 04:42:50;;;;;;;;;;;;;;;20.80;100.00;98760.53;5084619;28;19987;-73
2023/06/24 04:45:16;;;;;;;;;;;;;;;20.79;100.00;98764.38;5084339;28;19996;-73
2023/06/24 04:47:43;;;;;;;;;;;;;;;20.36;100.00;98774.91;5081027;28;19932;-73
2023/06/24 04:50:10;;;;;;;;;;;;;;;20.38;100.00;98768.03;5067441;28;19924;-73
2023/06/24 04:52:37;;;;;;;;;;;;;;;20.56;100.00;98776.31;5084546;28;20520;-73
2023/06/24 04:55:03;;;;;;;;;;;;;;;20.69;100.00;98772.75;5066558;28;19980;-73
2023/06/24 04:57:32;;;;;;;;;;;;;;;20.70;100.00;98769.75;5088512;28;19960;-73
2023/06/24 04:59:58;;;;;;;;;;;;;;;20.61;100.00;98768.06;5092287;28;20694;-73
2023/06/24 05:02:25;;;;;;;;;;;;;;;20.63;100.00;98766.66;5084671;28;19981;-73
2023/06/24 05:04:52;;;;;;;;;;;;;;;20.59;100.00;98773.81;5084519;28;20013;-73
2023/06/24 05:07:18;;;;;;;;;;;;;;;20.63;100.00;98774.81;5066318;28;19984;-73
2023/06/24 05:09:46;;;;;;;;;;;;;;;20.54;100.00;98773.94;5088714;28;19988;-73
2023/06/24 05:12:12;;;;;;;;;;;;;;;20.46;100.00;98775.44;5080782;28;19984;-73
2023/06/24 05:14:40;;;;;;;;;;;;;;;20.47;100.00;98778.97;5084005;28;20019;-73
2023/06/24 05:17:06;;;;;;;;;;;;;;;20.41;100.00;98775.56;5084297;28;19988;-73
2023/06/24 05:19:33;;;;;;;;;;;;;;;20.45;100.00;98773.06;5081757;28;19924;-74
2023/06/24 05:21:59;;;;;;;;;;;;;;;20.62;100.00;98778.63;5068213;28;19971;-74
2023/06/24 05:24:26;;;;;;;;;;;;;;;20.72;100.00;98780.28;5064015;28;19968;-74
2023/06/24 05:26:52;;;;;;;;;;;;;;;20.61;100.00;98787.06;5066040;28;19924;-74
2023/06/24 05:29:18;;;;;;;;;;;;;;;20.61;100.00;98789.78;5083003;28;20015;-75
2023/06/24 05:31:46;;;;;;;;;;;;;;;20.66;100.00;98792.38;5079940;28;19925;-74
2023/06/24 05:34:13;;;;;;;;;;;;;;;20.67;100.00;98791.28;5080532;28;19931;-74
2023/06/24 05:36:39;;;;;;;;;;;;;;;20.57;100.00;98789.59;5080338;28;19925;-74
2023/06/24 05:39:07;;;;;;;;;;;;;;;20.58;100.00;98791.19;5080562;28;19992;-74
2023/06/24 05:41:34;;;;;;;;;;;;;;;20.65;100.00;98782.63;5080357;28;19925;-74
2023/06/24 05:44:04;;;;;;;;;;;;;;;20.53;100.00;98780.47;5080245;28;19991;-74
2023/06/24 05:46:30;;;;;;;;;;;;;;;20.25;100.00;98790.53;5064460;28;19925;-74
2023/06/24 05:48:58;;;;;;;;;;;;;;;20.37;100.00;98793.56;5083691;28;19924;-74
2023/06/24 05:51:25;;;;;;;;;;;;;;;20.44;100.00;98788.53;5087513;28;19925;-74
2023/06/24 05:53:51;;;;;;;;;;;;;;;20.41;100.00;98789.13;5080000;28;19995;-74
2023/06/24 05:56:17;;;;;;;;;;;;;;;20.69;100.00;98795.28;5080233;28;19964;-75
2023/06/24 05:58:44;;;;;;;;;;;;;;;20.52;100.00;98802.50;5079645;28;19975;-75
2023/06/24 06:01:11;;;;;;;;;;;;;;;20.55;100.00;98801.88;5079977;28;19924;-74
2023/06/24 06:03:37;;;;;;;;;;;;;;;20.57;100.00;98794.22;5091475;28;19995;-74
2023/06/24 06:06:05;;;;;;;;;;;;;;;20.48;100.00;98806.91;5083292;28;19987;-74
2023/06/24 06:08:31;;;;;;;;;;;;;;;20.36;100.00;98805.50;5081191;28;20418;-74
2023/06/24 06:10:58;;;;;;;;;;;;;;;20.75;100.00;98802.19;5079730;28;19951;-74
2023/06/24 06:13:24;;;;;;;;;;;;;;;20.84;100.00;98794.91;5080752;28;19975;-75
2023/06/24 06:15:50;;;;;;;;;;;;;;;20.57;100.00;98799.66;5082956;28;19960;-74
2023/06/24 06:18:17;;;;;;;;;;;;;;;20.51;100.00;98803.59;5082626;28;20437;-74
2023/06/24 06:20:43;;;;;;;;;;;;;;;20.84;100.00;98804.97;5080116;28;20016;-74
2023/06/24 06:23:10;;;;;;;;;;;;;;;20.77;100.00;98808.13;5082789;28;19952;-73
2023/06/24 06:25:38;;;;;;;;;;;;;;;20.89;100.00;98802.13;5079745;28;20128;-74
2023/06/24 06:28:04;;;;;;;;;;;;;;;20.93;100.00;98797.69;5079248;28;20032;-74
2023/06/24 06:30:31;;;;;;;;;;;;;;;21.00;100.00;98795.34;5087768;28;19935;-74
2023/06/24 06:32:57;;;;;;;;;;;;;;;21.01;100.00;98794.25;5079267;28;19929;-74
2023/06/24 06:35:23;;;;;;;;;;;;;;;21.18;100.00;98797.09;5062266;28;19952;-74
2023/06/24 06:37:52;;;;;;;;;;;;;;;21.03;100.00;98800.16;5082588;28;19960;-74
2023/06/24 06:40:20;;;;;;;;;;;;;;;21.23;100.00;98805.09;5082325;28;19947;-74
2023/06/24 06:42:46;;;;;;;;;;;;;;;21.20;100.00;98804.94;5079343;28;19931;-74
2023/06/24 06:45:13;;;;;;;;;;;;;;;21.23;100.00;98796.19;5079185;28;19960;-74
2023/06/24 06:47:39;;;;;;;;;;;;;;;21.26;100.00;98798.28;5087185;28;19925;-74
2023/06/24 06:50:07;;;;;;;;;;;;;;;21.23;100.00;98791.53;5083123;28;19999;-74
2023/06/24 06:52:33;;;;;;;;;;;;;;;21.18;100.00;98786.22;5082499;28;19935;-74
2023/06/24 06:55:00;;;;;;;;;;;;;;;21.25;100.00;98788.50;5064636;28;19925;-74
2023/06/24 06:57:29;;;;;;;;;;;;;;;21.23;100.00;98794.25;5062946;28;19924;-74
2023/06/24 06:59:55;;;;;;;;;;;;;;;21.29;100.00;98792.22;5079160;28;19925;-73
2023/06/24 07:02:21;;;;;;;;;;;;;;;21.28;100.00;98787.88;5080018;28;19992;-74
2023/06/24 07:04:48;;;;;;;;;;;;;;;21.13;100.00;98791.81;5064892;28;19928;-74
2023/06/24 07:07:14;;;;;;;;;;;;;;;21.38;100.00;98784.91;5064836;28;19924;-74
2023/06/24 07:09:41;;;;;;;;;;;;;;;21.57;100.00;98790.91;5061542;28;20002;-75
2023/06/24 07:12:07;;;;;;;;;;;;;;;21.65;100.00;98789.34;5079225;28;19960;-74
2023/06/24 07:14:35;;;;;;;;;;;;;;;21.73;100.00;98788.56;5081607;28;19925;-74
2023/06/24 07:17:02;;;;;;;;;;;;;;;21.47;100.00;98786.56;5082743;28;19947;-74
2023/06/24 07:19:28;;;;;;;;;;;;;;;21.27;100.00;98787.09;5080928;28;19936;-74
2023/06/24 07:21:54;;;;;;;;;;;;;;;21.34;100.00;98778.50;5084034;28;19967;-73
2023/06/24 07:24:21;;;;;;;;;;;;;;;21.55;100.00;98793.13;5079566;28;19932;-73
2023/06/24 07:26:47;;;;;;;;;;;;;;;21.74;100.00;98790.97;5081183;28;19971;-74
2023/06/24 07:29:14;;;;;;;;;;;;;;;21.75;100.00;98787.16;5082210;28;19936;-73
2023/06/24 07:31:41;;;;;;;;;;;;;;;21.52;100.00;98789.13;5078609;28;19925;-74
2023/06/24 07:34:08;;;;;;;;;;;;;;;21.77;100.00;98786.84;5078570;28;20011;-73
2023/06/24 07:36:34;;;;;;;;;;;;;;;22.07;100.00;98785.97;5086031;28;19935;-73
2023/06/24 07:39:00;;;;;;;;;;;;;;;22.08;100.00;98784.88;5078641;28;19936;-74
2023/06/24 07:41:27;;;;;;;;;;;;;;;22.18;100.00;98783.78;5080061;28;19960;-74
2023/06/24 07:43:53;;;;;;;;;;;;;;;22.22;100.00;98780.09;5082142;28;19970;-74
2023/06/24 07:46:19;;;;;;;;;;;;;;;22.09;100.00;98781.06;5081624;28;19974;-74
2023/06/24 07:48:47;;;;;;;;;;;;;;;21.97;100.00;98786.31;5078443;28;19924;-74
2023/06/24 07:51:13;;;;;;;;;;;;;;;22.22;100.00;98785.53;5068652;28;19924;-74
2023/06/24 07:53:40;;;;;;;;;;;;;;;22.35;100.00;98775.63;5081246;28;19987;-74
2023/06/24 07:56:06;;;;;;;;;;;;;;;22.41;100.00;98786.03;5082527;28;19932;-74
2023/06/24 07:58:34;;;;;;;;;;;;;;;22.38;100.00;98783.97;5085523;28;19971;-74
2023/06/24 08:01:01;;;;;;;;;;;;;;;22.61;100.00;98787.34;5086347;28;19921;-74
2023/06/24 08:03:28;;;;;;;;;;;;;;;22.47;100.00;98782.03;5084702;28;19924;-73
2023/06/24 08:05:56;;;;;;;;;;;;;;;22.46;100.00;98785.91;5064864;28;20003;-73
2023/06/24 08:08:22;;;;;;;;;;;;;;;22.68;100.00;98779.53;5083290;28;19932;-73
2023/06/24 08:10:49;;;;;;;;;;;;;;;22.46;100.00;98769.56;5067891;28;20036;-73
2023/06/24 08:13:15;;;;;;;;;;;;;;;22.66;100.00;98778.22;5085747;28;19924;-73
2023/06/24 08:15:41;;;;;;;;;;;;;;;22.45;100.00;98767.16;5073949;28;19960;-73
2023/06/24 08:18:08;;;;;;;;;;;;;;;22.74;100.00;98772.00;5073951;28;20023;-74
2023/06/24 08:20:34;;;;;;;;;;;;;;;22.94;98.52;98769.41;5081824;28;19984;-74
2023/06/24 08:23:02;;;;;;;;;;;;;;;22.86;99.38;98772.16;5085725;28;19952;-74
2023/06/24 08:25:28;;;;;;;;;;;;;;;22.81;99.18;98762.22;5083573;28;19928;-74
2023/06/24 08:27:54;;;;;;;;;;;;;;;22.93;98.00;98770.53;5081849;28;19925;-74
2023/06/24 08:30:21;;;;;;;;;;;;;;;22.64;100.00;98766.84;5082346;28;20004;-74
2023/06/24 08:32:47;;;;;;;;;;;;;;;22.67;100.00;98763.50;5085117;28;20027;-75
2023/06/24 08:35:13;;;;;;;;;;;;;;;22.63;100.00;98765.22;5067028;28;19964;-74
2023/06/24 08:37:40;;;;;;;;;;;;;;;22.53;100.00;98769.06;5082233;28;19936;-74
2023/06/24 08:40:08;;;;;;;;;;;;;;;22.78;95.45;98771.03;5082336;28;19932;-74
2023/06/24 08:42:35;;;;;;;;;;;;;;;22.67;91.62;98764.31;5084481;28;19925;-74
2023/06/24 08:45:01;;;;;;;;;;;;;;;22.91;90.08;98769.25;5085245;28;19963;-75
2023/06/24 08:47:29;;;;;;;;;;;;;;;23.01;86.42;98768.91;5083442;28;19928;-75
2023/06/24 08:50:03;;;;;;;;;;;;;;;22.93;87.68;98761.56;5083992;28;19924;-75
2023/06/24 08:52:31;;;;;;;;;;;;;;;23.10;86.23;98756.09;5067175;28;19931;-74
2023/06/24 08:54:59;;;;;;;;;;;;;;;22.88;89.13;98759.00;5085018;28;19925;-74
2023/06/24 08:57:27;;;;;;;;;;;;;;;22.84;91.28;98761.56;5083496;28;19924;-74
2023/06/24 08:59:53;;;;;;;;;;;;;;;22.93;94.08;98762.34;5081412;28;19952;-74
2023/06/24 09:02:20;;;;;;;;;;;;;;;22.88;93.33;98767.97;5063962;28;19960;-75
2023/06/24 09:04:46;;;;;;;;;;;;;;;23.12;92.45;98765.53;5066837;28;20293;-74
2023/06/24 09:07:13;;;;;;;;;;;;;;;23.19;83.16;98762.31;5084748;28;19936;-75
2023/06/24 09:09:43;;;;;;;;;;;;;;;23.13;83.49;98760.88;5081536;28;19988;-75
2023/06/24 09:12:11;;;;;;;;;;;;;;;23.24;79.22;98762.13;5081189;28;19925;-75
2023/06/24 09:14:40;;;;;;;;;;;;;;;23.14;78.26;98765.22;5084105;28;19924;-75
2023/06/24 09:17:09;;;;;;;;;;;;;;;23.12;81.28;98764.72;5084462;28;19967;-75
2023/06/24 09:19:36;;;;;;;;;;;;;;;23.07;83.83;98746.63;5081840;28;19924;-75
2023/06/24 09:22:03;;;;;;;;;;;;;;;23.30;83.35;98752.69;5081197;28;20000;-75
2023/06/24 09:24:31;;;;;;;;;;;;;;;23.30;82.22;98749.94;5082847;28;19925;-75
2023/06/24 09:26:58;;;;;;;;;;;;;;;23.41;77.65;98748.50;5067486;28;19963;-74
2023/06/24 09:29:26;;;;;;;;;;;;;;;23.31;80.41;98748.81;5083572;28;19994;-74
2023/06/24 09:31:55;;;;;;;;;;;;;;;23.49;82.04;98742.19;5081339;28;19925;-74
2023/06/24 09:34:22;;;;;;;;;;;;;;;23.53;78.93;98737.69;5081801;28;19960;-74
2023/06/24 09:36:52;;;;;;;;;;;;;;;23.46;78.91;98742.84;5083513;28;19954;-75
2023/06/24 09:39:18;;;;;;;;;;;;;;;23.52;77.88;98738.81;5084265;28;19988;-74
2023/06/24 09:41:49;;;;;;;;;;;;;;;23.60;76.52;98738.00;5062813;28;19925;-74
2023/06/24 09:44:16;;;;;;;;;;;;;;;23.37;78.59;98738.50;5080894;28;19987;-74
2023/06/24 09:46:44;;;;;;;;;;;;;;;23.42;80.51;98741.91;5082052;28;19963;-75
2023/06/24 09:49:11;;;;;;;;;;;;;;;23.46;81.48;98740.13;5081239;28;19990;-74
2023/06/24 09:51:39;;;;;;;;;;;;;;;23.34;83.17;98737.25;5089742;28;19978;-74
2023/06/24 09:54:06;;;;;;;;;;;;;;;23.51;81.76;98741.88;5081018;28;20285;-74
2023/06/24 09:56:33;;;;;;;;;;;;;;;23.42;82.37;98733.75;5064994;28;19992;-74
2023/06/24 09:59:00;;;;;;;;;;;;;;;23.44;81.33;98731.47;5084023;28;19924;-74
2023/06/24 10:01:27;;;;;;;;;;;;;;;23.70;72.82;98723.19;5082246;28;19962;-74
2023/06/24 10:03:54;;;;;;;;;;;;;;;23.67;73.67;98715.66;5062461;28;19924;-74
2023/06/24 10:06:22;;;;;;;;;;;;;;;23.77;74.19;98720.72;5080616;28;20023;-74
2023/06/24 10:08:48;;;;;;;;;;;;;;;23.86;74.84;98716.00;5083256;28;19996;-74
2023/06/24 10:11:15;;;;;;;;;;;;;;;24.14;68.35;98716.34;5083334;28;19974;-75
2023/06/24 10:13:41;;;;;;;;;;;;;;;24.07;70.76;98707.88;5079914;28;20016;-75
2023/06/24 10:16:07;;;;;;;;;;;;;;;24.06;70.89;98712.53;5061795;28;19992;-75
2023/06/24 10:18:35;;;;;;;;;;;;;;;24.16;68.95;98717.63;5064358;28;19948;-75
2023/06/24 10:21:02;;;;;;;;;;;;;;;24.01;68.47;98711.94;5088626;28;19924;-75
2023/06/24 10:23:32;;;;;;;;;;;;;;;23.96;67.49;98712.91;5082069;28;20007;-75
2023/06/24 10:25:58;;;;;;;;;;;;;;;23.99;66.99;98711.44;5080014;28;19925;-74
2023/06/24 10:28:25;;;;;;;;;;;;;;;24.07;62.46;98710.59;5063073;28;19924;-74
2023/06/24 10:30:55;;;;;;;;;;;;;;;24.15;61.81;98699.66;5065558;28;19974;-74
2023/06/24 10:33:21;;;;;;;;;;;;;;;24.17;64.78;98699.28;5082856;28;19939;-74
2023/06/24 10:35:48;;;;;;;;;;;;;;;24.49;64.03;98695.84;5079834;28;19936;-75
2023/06/24 10:38:14;;;;;;;;;;;;;;;24.61;63.74;98693.16;5079881;28;19948;-75
2023/06/24 10:40:43;;;;;;;;;;;;;;;24.40;65.41;98697.03;5083075;28;19936;-75
2023/06/24 10:43:29;;;;;;;;;;;;;;;24.27;67.65;98685.25;5065485;28;19928;-75
2023/06/24 10:45:56;;;;;;;;;;;;;;;24.42;68.20;98676.44;5079801;28;19924;-73
2023/06/24 10:48:22;;;;;;;;;;;;;;;24.55;65.88;98680.03;5062440;28;19924;-75
2023/06/24 10:50:49;;;;;;;;;;;;;;;24.73;62.11;98675.22;5088568;28;19920;-75
2023/06/24 10:53:18;;;;;;;;;;;;;;;24.75;61.80;98667.47;5082870;28;19925;-76
2023/06/24 10:55:46;;;;;;;;;;;;;;;24.72;62.25;98666.22;5071198;28;19955;-75
2023/06/24 10:58:14;;;;;;;;;;;;;;;24.79;61.23;98665.69;5071367;28;19932;-75
2023/06/24 11:00:40;;;;;;;;;;;;;;;24.88;60.37;98652.75;5071279;28;19932;-75
2023/06/24 11:03:10;;;;;;;;;;;;;;;24.83;62.43;98642.03;5071684;28;19976;-75
2023/06/24 11:05:39;;;;;;;;;;;;;;;25.22;57.66;98641.41;5071671;28;19928;-75
2023/06/24 11:08:06;;;;;;;;;;;;;;;25.10;58.91;98644.09;5071010;28;19960;-74
2023/06/24 11:10:32;;;;;;;;;;;;;;;25.05;60.06;98650.59;5071024;28;19967;-75
2023/06/24 11:13:05;;;;;;;;;;;;;;;24.92;60.23;98646.25;5070802;28;19924;-75
2023/06/24 11:15:33;;;;;;;;;;;;;;;24.97;60.45;98640.59;5070679;28;19974;-74
2023/06/24 11:17:59;;;;;;;;;;;;;;;24.86;60.17;98633.16;5070734;28;19925;-75
2023/06/24 11:20:25;;;;;;;;;;;;;;;24.82;59.91;98635.75;5077624;28;19924;-75
2023/06/24 11:22:51;;;;;;;;;;;;;;;24.84;58.58;98636.22;5082972;28;19950;-74
2023/06/24 11:25:19;;;;;;;;;;;;;;;24.64;59.72;98623.38;5082540;28;20315;-74
2023/06/24 11:27:45;;;;;;;;;;;;;;;24.82;58.49;98624.06;5062267;28;19925;-75
2023/06/24 11:30:14;;;;;;;;;;;;;;;24.83;59.26;98620.97;5083208;28;19925;-75
2023/06/24 11:32:41;;;;;;;;;;;;;;;24.74;60.20;98614.78;5086659;28;19925;-75
2023/06/24 11:35:09;;;;;;;;;;;;;;;24.88;60.50;98606.31;5061333;28;19975;-75
2023/06/24 11:37:35;;;;;;;;;;;;;;;25.18;56.28;98603.03;5072880;28;19935;-75
2023/06/24 11:40:04;;;;;;;;;;;;;;;25.51;54.97;98594.69;5079259;28;19970;-75
2023/06/24 11:42:31;;;;;;;;;;;;;;;25.41;56.82;98603.31;5084488;28;19928;-75
2023/06/24 11:45:00;;;;;;;;;;;;;;;25.30;57.62;98601.41;5085071;28;19924;-75
2023/06/24 11:47:31;;;;;;;;;;;;;;;25.36;56.67;98595.38;5066030;28;19963;-75
2023/06/24 11:49:58;;;;;;;;;;;;;;;25.44;56.98;98596.41;5084866;28;19988;-75
2023/06/24 11:52:32;;;;;;;;;;;;;;;25.50;55.51;98582.16;5068110;28;20282;-75
2023/06/24 11:54:59;;;;;;;;;;;;;;;25.33;55.05;98592.53;5067864;28;19925;-75
2023/06/24 11:57:40;;;;;;;;;;;;;;;25.33;54.80;98590.59;5084021;28;19925;-76
2023/06/24 12:00:12;;;;;;;;;;;;;;;25.40;54.57;98588.09;5080443;28;19999;-75
2023/06/24 12:02:40;;;;;;;;;;;;;;;25.48;52.87;98589.88;5084304;28;19924;-75
2023/06/24 12:05:07;;;;;;;;;;;;;;;25.45;52.47;98581.56;5084746;28;19964;-75
2023/06/24 12:07:33;;;;;;;;;;;;;;;25.58;53.00;98586.72;5082350;28;19935;-75
2023/06/24 12:10:00;;;;;;;;;;;;;;;25.58;53.43;98580.44;5081266;28;19984;-75
2023/06/24 12:12:26;;;;;;;;;;;;;;;25.52;55.21;98577.16;5082697;28;20508;-75
2023/06/24 12:14:54;;;;;;;;;;;;;;;25.90;53.60;98582.19;5084632;28;19967;-75
2023/06/24 12:17:20;;;;;;;;;;;;;;;25.80;54.11;98565.47;5084104;28;19930;-75
2023/06/24 12:19:48;;;;;;;;;;;;;;;25.70;53.77;98570.28;5082421;28;19925;-75
2023/06/24 12:22:14;;;;;;;;;;;;;;;25.81;54.65;98573.31;5084810;28;19932;-75
2023/06/24 12:24:40;;;;;;;;;;;;;;;25.97;52.76;98568.69;5084195;28;19956;-75
2023/06/24 12:27:07;;;;;;;;;;;;;;;26.05;52.45;98572.44;5084383;28;20007;-75
2023/06/24 12:29:33;;;;;;;;;;;;;;;26.00;52.63;98564.47;5082009;28;20003;-76
2023/06/24 12:32:00;;;;;;;;;;;;;;;25.94;52.61;98552.16;5080700;28;19925;-76
2023/06/24 12:34:26;;;;;;;;;;;;;;;25.79;52.07;98553.72;5082057;28;19925;-76
2023/06/24 12:36:54;;;;;;;;;;;;;;;25.86;52.02;98553.13;5007291;28;1763588;-76
2023/06/24 12:39:20;;;;;;;;;;;;;;;25.90;51.97;98554.03;5064097;28;19964;-76
2023/06/24 12:41:46;;;;;;;;;;;;;;;26.01;52.08;98550.44;5067438;28;19924;-73